sensor_id;sensor_type;location;lat;lon;timestamp;P1;durP1;ratioP1;P2;durP2;ratioP2
1837;SDS011;918;50.796;6.772;2023-08-12T00:01:54;17.50;;;16.10;;
1837;SDS011;918;50.796;6.772;2023-08-12T00:04:19;17.33;;;15.73;;
1837;SDS011;918;50.796;6.772;2023-08-12T00:06:45;17.80;;;16.40;;
1837;SDS011;918;50.796;6.772;2023-08-12T00:09:10;18.70;;;17.20;;
1837;SDS011;918;50.796;6.772;2023-08-12T00:11:40;17.57;;;16.20;;
1837;SDS011;918;50.796;6.772;2023-08-12T00:14:05;16.63;;;15.30;;
1837;SDS011;918;50.796;6.772;2023-08-12T00:16:30;17.20;;;15.90;;
1837;SDS011;918;50.796;6.772;2023-08-12T00:18:56;18.03;;;16.60;;
1837;SDS011;918;50.796;6.772;2023-08-12T00:21:21;18.70;;;17.40;;
1837;SDS011;918;50.796;6.772;2023-08-12T00:23:46;19.93;;;18.03;;
1837;SDS011;918;50.796;6.772;2023-08-12T00:26:14;18.90;;;17.37;;
1837;SDS011;918;50.796;6.772;2023-08-12T00:28:40;19.60;;;18.20;;
1837;SDS011;918;50.796;6.772;2023-08-12T00:31:05;20.43;;;18.63;;
1837;SDS011;918;50.796;6.772;2023-08-12T00:33:30;20.40;;;18.90;;
1837;SDS011;918;50.796;6.772;2023-08-12T00:35:55;18.37;;;17.07;;
1837;SDS011;918;50.796;6.772;2023-08-12T00:38:21;19.77;;;18.23;;
1837;SDS011;918;50.796;6.772;2023-08-12T00:40:46;19.73;;;18.30;;
1837;SDS011;918;50.796;6.772;2023-08-12T00:43:12;20.30;;;18.70;;
1837;SDS011;918;50.796;6.772;2023-08-12T00:45:37;20.10;;;18.50;;
1837;SDS011;918;50.796;6.772;2023-08-12T00:48:03;19.53;;;17.83;;
1837;SDS011;918;50.796;6.772;2023-08-12T00:50:29;20.70;;;19.10;;
1837;SDS011;918;50.796;6.772;2023-08-12T00:52:54;21.30;;;19.50;;
1837;SDS011;918;50.796;6.772;2023-08-12T00:55:19;21.23;;;19.33;;
1837;SDS011;918;50.796;6.772;2023-08-12T00:57:45;20.90;;;19.20;;
1837;SDS011;918;50.796;6.772;2023-08-12T01:00:11;20.17;;;18.57;;
1837;SDS011;918;50.796;6.772;2023-08-12T01:02:38;19.90;;;18.30;;
1837;SDS011;918;50.796;6.772;2023-08-12T01:05:04;22.60;;;20.60;;
1837;SDS011;918;50.796;6.772;2023-08-12T01:07:30;20.30;;;18.70;;
1837;SDS011;918;50.796;6.772;2023-08-12T01:09:55;20.50;;;18.90;;
1837;SDS011;918;50.796;6.772;2023-08-12T01:12:29;20.17;;;18.57;;
1837;SDS011;918;50.796;6.772;2023-08-12T01:15:03;20.43;;;18.83;;
1837;SDS011;918;50.796;6.772;2023-08-12T01:17:30;22.50;;;20.60;;
1837;SDS011;918;50.796;6.772;2023-08-12T01:19:56;21.90;;;19.90;;
1837;SDS011;918;50.796;6.772;2023-08-12T01:22:21;20.87;;;19.20;;
1837;SDS011;918;50.796;6.772;2023-08-12T01:24:48;21.10;;;19.50;;
1837;SDS011;918;50.796;6.772;2023-08-12T01:27:14;23.70;;;21.57;;
1837;SDS011;918;50.796;6.772;2023-08-12T01:29:40;20.90;;;19.23;;
1837;SDS011;918;50.796;6.772;2023-08-12T01:35:04;23.00;;;21.07;;
1837;SDS011;918;50.796;6.772;2023-08-12T01:37:30;21.23;;;19.43;;
1837;SDS011;918;50.796;6.772;2023-08-12T01:39:56;22.57;;;20.70;;
1837;SDS011;918;50.796;6.772;2023-08-12T01:42:24;20.60;;;18.90;;
1837;SDS011;918;50.796;6.772;2023-08-12T01:44:50;20.73;;;18.93;;
1837;SDS011;918;50.796;6.772;2023-08-12T01:47:15;20.23;;;18.60;;
1837;SDS011;918;50.796;6.772;2023-08-12T01:49:40;19.03;;;17.43;;
1837;SDS011;918;50.796;6.772;2023-08-12T01:52:05;18.23;;;16.70;;
1837;SDS011;918;50.796;6.772;2023-08-12T01:54:31;20.63;;;19.13;;
1837;SDS011;918;50.796;6.772;2023-08-12T01:57:01;19.33;;;17.80;;
1837;SDS011;918;50.796;6.772;2023-08-12T01:59:27;19.13;;;17.50;;
1837;SDS011;918;50.796;6.772;2023-08-12T02:01:53;19.10;;;17.70;;
1837;SDS011;918;50.796;6.772;2023-08-12T02:04:18;16.83;;;15.33;;
1837;SDS011;918;50.796;6.772;2023-08-12T02:06:43;16.67;;;15.03;;
1837;SDS011;918;50.796;6.772;2023-08-12T02:09:08;16.67;;;15.23;;
1837;SDS011;918;50.796;6.772;2023-08-12T02:11:34;15.97;;;14.50;;
1837;SDS011;918;50.796;6.772;2023-08-12T02:13:59;18.13;;;16.50;;
1837;SDS011;918;50.796;6.772;2023-08-12T02:16:24;17.10;;;15.80;;
1837;SDS011;918;50.796;6.772;2023-08-12T02:18:49;16.00;;;14.60;;
1837;SDS011;918;50.796;6.772;2023-08-12T02:21:14;16.20;;;14.53;;
1837;SDS011;918;50.796;6.772;2023-08-12T02:23:40;17.53;;;16.00;;
1837;SDS011;918;50.796;6.772;2023-08-12T02:26:05;18.10;;;16.70;;
1837;SDS011;918;50.796;6.772;2023-08-12T02:28:30;16.27;;;14.87;;
1837;SDS011;918;50.796;6.772;2023-08-12T02:30:55;16.53;;;15.03;;
1837;SDS011;918;50.796;6.772;2023-08-12T02:33:21;16.40;;;15.10;;
1837;SDS011;918;50.796;6.772;2023-08-12T02:35:46;15.90;;;14.53;;
1837;SDS011;918;50.796;6.772;2023-08-12T02:38:11;15.10;;;14.00;;
1837;SDS011;918;50.796;6.772;2023-08-12T02:40:36;14.70;;;13.60;;
1837;SDS011;918;50.796;6.772;2023-08-12T02:43:02;15.63;;;14.37;;
1837;SDS011;918;50.796;6.772;2023-08-12T02:45:27;15.87;;;14.57;;
1837;SDS011;918;50.796;6.772;2023-08-12T02:47:52;16.83;;;15.53;;
1837;SDS011;918;50.796;6.772;2023-08-12T02:50:18;18.63;;;16.73;;
1837;SDS011;918;50.796;6.772;2023-08-12T02:52:43;16.17;;;14.97;;
1837;SDS011;918;50.796;6.772;2023-08-12T02:55:08;14.10;;;13.10;;
1837;SDS011;918;50.796;6.772;2023-08-12T02:57:33;16.63;;;15.23;;
1837;SDS011;918;50.796;6.772;2023-08-12T02:59:58;16.67;;;15.37;;
1837;SDS011;918;50.796;6.772;2023-08-12T03:02:24;15.83;;;14.53;;
1837;SDS011;918;50.796;6.772;2023-08-12T03:04:49;17.67;;;16.37;;
1837;SDS011;918;50.796;6.772;2023-08-12T03:07:14;15.50;;;14.30;;
1837;SDS011;918;50.796;6.772;2023-08-12T03:09:40;14.77;;;13.27;;
1837;SDS011;918;50.796;6.772;2023-08-12T03:12:05;16.87;;;15.17;;
1837;SDS011;918;50.796;6.772;2023-08-12T03:14:31;16.40;;;15.00;;
1837;SDS011;918;50.796;6.772;2023-08-12T03:16:56;17.57;;;16.10;;
1837;SDS011;918;50.796;6.772;2023-08-12T03:19:21;17.17;;;15.87;;
1837;SDS011;918;50.796;6.772;2023-08-12T03:21:47;17.73;;;16.30;;
1837;SDS011;918;50.796;6.772;2023-08-12T03:24:12;17.20;;;15.50;;
1837;SDS011;918;50.796;6.772;2023-08-12T03:26:37;20.27;;;18.57;;
1837;SDS011;918;50.796;6.772;2023-08-12T03:29:02;21.30;;;19.43;;
1837;SDS011;918;50.796;6.772;2023-08-12T03:31:28;21.40;;;19.50;;
1837;SDS011;918;50.796;6.772;2023-08-12T03:33:53;21.00;;;18.90;;
1837;SDS011;918;50.796;6.772;2023-08-12T03:36:18;22.03;;;20.23;;
1837;SDS011;918;50.796;6.772;2023-08-12T03:38:44;21.70;;;19.70;;
1837;SDS011;918;50.796;6.772;2023-08-12T03:41:09;22.80;;;20.80;;
1837;SDS011;918;50.796;6.772;2023-08-12T03:43:34;22.07;;;20.20;;
1837;SDS011;918;50.796;6.772;2023-08-12T03:45:59;20.20;;;18.40;;
1837;SDS011;918;50.796;6.772;2023-08-12T03:48:25;20.13;;;18.53;;
1837;SDS011;918;50.796;6.772;2023-08-12T03:50:50;22.60;;;20.43;;
1837;SDS011;918;50.796;6.772;2023-08-12T03:53:15;20.73;;;19.00;;
1837;SDS011;918;50.796;6.772;2023-08-12T03:55:41;20.03;;;18.03;;
1837;SDS011;918;50.796;6.772;2023-08-12T03:58:06;19.87;;;18.20;;
1837;SDS011;918;50.796;6.772;2023-08-12T04:00:31;21.57;;;19.70;;
1837;SDS011;918;50.796;6.772;2023-08-12T04:02:57;21.27;;;19.37;;
1837;SDS011;918;50.796;6.772;2023-08-12T04:05:22;21.13;;;19.27;;
1837;SDS011;918;50.796;6.772;2023-08-12T04:07:47;20.27;;;18.47;;
1837;SDS011;918;50.796;6.772;2023-08-12T04:10:12;20.80;;;19.20;;
1837;SDS011;918;50.796;6.772;2023-08-12T04:12:40;23.33;;;21.23;;
1837;SDS011;918;50.796;6.772;2023-08-12T04:15:06;22.10;;;20.30;;
1837;SDS011;918;50.796;6.772;2023-08-12T04:17:32;21.30;;;19.60;;
1837;SDS011;918;50.796;6.772;2023-08-12T04:19:57;22.87;;;20.87;;
1837;SDS011;918;50.796;6.772;2023-08-12T04:22:22;22.20;;;20.33;;
1837;SDS011;918;50.796;6.772;2023-08-12T04:24:48;23.30;;;21.10;;
1837;SDS011;918;50.796;6.772;2023-08-12T04:27:13;22.37;;;20.53;;
1837;SDS011;918;50.796;6.772;2023-08-12T04:29:39;22.50;;;20.70;;
1837;SDS011;918;50.796;6.772;2023-08-12T04:32:04;23.90;;;21.87;;
1837;SDS011;918;50.796;6.772;2023-08-12T04:34:30;23.33;;;21.43;;
1837;SDS011;918;50.796;6.772;2023-08-12T04:36:55;24.23;;;22.13;;
1837;SDS011;918;50.796;6.772;2023-08-12T04:39:20;24.87;;;22.87;;
1837;SDS011;918;50.796;6.772;2023-08-12T04:41:47;22.77;;;20.90;;
1837;SDS011;918;50.796;6.772;2023-08-12T04:44:12;23.10;;;21.20;;
1837;SDS011;918;50.796;6.772;2023-08-12T04:46:37;22.97;;;21.27;;
1837;SDS011;918;50.796;6.772;2023-08-12T04:49:02;22.43;;;20.50;;
1837;SDS011;918;50.796;6.772;2023-08-12T04:51:28;22.73;;;20.80;;
1837;SDS011;918;50.796;6.772;2023-08-12T04:53:53;22.70;;;20.87;;
1837;SDS011;918;50.796;6.772;2023-08-12T04:56:18;21.17;;;19.33;;
1837;SDS011;918;50.796;6.772;2023-08-12T04:58:44;21.80;;;19.90;;
1837;SDS011;918;50.796;6.772;2023-08-12T05:01:09;22.90;;;21.07;;
1837;SDS011;918;50.796;6.772;2023-08-12T05:03:34;23.50;;;21.50;;
1837;SDS011;918;50.796;6.772;2023-08-12T05:05:59;20.40;;;18.90;;
1837;SDS011;918;50.796;6.772;2023-08-12T05:08:24;20.70;;;18.80;;
1837;SDS011;918;50.796;6.772;2023-08-12T05:10:50;21.30;;;19.50;;
1837;SDS011;918;50.796;6.772;2023-08-12T05:13:15;19.43;;;18.13;;
1837;SDS011;918;50.796;6.772;2023-08-12T05:15:41;19.43;;;18.00;;
1837;SDS011;918;50.796;6.772;2023-08-12T05:18:06;20.37;;;18.87;;
1837;SDS011;918;50.796;6.772;2023-08-12T05:20:31;17.30;;;16.00;;
1837;SDS011;918;50.796;6.772;2023-08-12T05:22:57;18.23;;;16.70;;
1837;SDS011;918;50.796;6.772;2023-08-12T05:25:22;16.60;;;15.40;;
1837;SDS011;918;50.796;6.772;2023-08-12T05:27:48;16.80;;;15.60;;
1837;SDS011;918;50.796;6.772;2023-08-12T05:30:13;15.87;;;14.63;;
1837;SDS011;918;50.796;6.772;2023-08-12T05:32:38;15.10;;;14.00;;
1837;SDS011;918;50.796;6.772;2023-08-12T05:35:04;13.00;;;12.00;;
1837;SDS011;918;50.796;6.772;2023-08-12T05:37:29;10.87;;;9.80;;
1837;SDS011;918;50.796;6.772;2023-08-12T05:39:55;9.60;;;8.90;;
1837;SDS011;918;50.796;6.772;2023-08-12T05:42:20;8.67;;;8.07;;
1837;SDS011;918;50.796;6.772;2023-08-12T05:44:45;8.20;;;7.70;;
1837;SDS011;918;50.796;6.772;2023-08-12T05:47:10;6.60;;;6.20;;
1837;SDS011;918;50.796;6.772;2023-08-12T05:49:35;6.10;;;5.60;;
1837;SDS011;918;50.796;6.772;2023-08-12T05:52:01;5.63;;;5.33;;
1837;SDS011;918;50.796;6.772;2023-08-12T05:54:26;7.03;;;5.17;;
1837;SDS011;918;50.796;6.772;2023-08-12T05:56:51;4.77;;;4.37;;
1837;SDS011;918;50.796;6.772;2023-08-12T05:59:17;4.70;;;4.40;;
1837;SDS011;918;50.796;6.772;2023-08-12T06:01:42;4.93;;;4.70;;
1837;SDS011;918;50.796;6.772;2023-08-12T06:04:07;5.00;;;4.47;;
1837;SDS011;918;50.796;6.772;2023-08-12T06:06:32;5.47;;;4.90;;
1837;SDS011;918;50.796;6.772;2023-08-12T06:08:58;4.60;;;4.10;;
1837;SDS011;918;50.796;6.772;2023-08-12T06:11:23;5.50;;;3.70;;
1837;SDS011;918;50.796;6.772;2023-08-12T06:13:48;4.30;;;3.90;;
1837;SDS011;918;50.796;6.772;2023-08-12T06:16:13;4.60;;;4.17;;
1837;SDS011;918;50.796;6.772;2023-08-12T06:18:39;4.47;;;3.80;;
1837;SDS011;918;50.796;6.772;2023-08-12T06:21:04;4.47;;;4.10;;
1837;SDS011;918;50.796;6.772;2023-08-12T06:23:29;4.60;;;4.30;;
1837;SDS011;918;50.796;6.772;2023-08-12T06:25:55;4.77;;;4.00;;
1837;SDS011;918;50.796;6.772;2023-08-12T06:28:20;3.97;;;3.77;;
1837;SDS011;918;50.796;6.772;2023-08-12T06:30:45;3.63;;;3.23;;
1837;SDS011;918;50.796;6.772;2023-08-12T06:33:12;3.70;;;3.40;;
1837;SDS011;918;50.796;6.772;2023-08-12T06:35:38;4.03;;;3.67;;
1837;SDS011;918;50.796;6.772;2023-08-12T06:38:04;4.50;;;4.17;;
1837;SDS011;918;50.796;6.772;2023-08-12T06:40:30;3.43;;;3.23;;
1837;SDS011;918;50.796;6.772;2023-08-12T06:42:55;3.90;;;3.23;;
1837;SDS011;918;50.796;6.772;2023-08-12T06:45:21;4.23;;;3.67;;
1837;SDS011;918;50.796;6.772;2023-08-12T06:47:46;3.23;;;2.93;;
1837;SDS011;918;50.796;6.772;2023-08-12T06:50:11;3.53;;;3.17;;
1837;SDS011;918;50.796;6.772;2023-08-12T06:52:36;4.83;;;3.40;;
1837;SDS011;918;50.796;6.772;2023-08-12T06:55:02;3.70;;;3.33;;
1837;SDS011;918;50.796;6.772;2023-08-12T06:57:27;3.87;;;3.50;;
1837;SDS011;918;50.796;6.772;2023-08-12T06:59:52;3.33;;;3.03;;
1837;SDS011;918;50.796;6.772;2023-08-12T07:02:17;3.10;;;2.90;;
1837;SDS011;918;50.796;6.772;2023-08-12T07:04:43;4.03;;;3.10;;
1837;SDS011;918;50.796;6.772;2023-08-12T07:07:08;2.90;;;2.70;;
1837;SDS011;918;50.796;6.772;2023-08-12T07:09:33;4.60;;;3.40;;
1837;SDS011;918;50.796;6.772;2023-08-12T07:12:01;3.90;;;3.20;;
1837;SDS011;918;50.796;6.772;2023-08-12T07:14:27;3.33;;;3.03;;
1837;SDS011;918;50.796;6.772;2023-08-12T07:16:53;3.13;;;2.80;;
1837;SDS011;918;50.796;6.772;2023-08-12T07:19:19;4.30;;;2.90;;
1837;SDS011;918;50.796;6.772;2023-08-12T07:21:44;2.70;;;2.50;;
1837;SDS011;918;50.796;6.772;2023-08-12T07:24:09;3.10;;;2.53;;
1837;SDS011;918;50.796;6.772;2023-08-12T07:26:35;2.70;;;2.50;;
1837;SDS011;918;50.796;6.772;2023-08-12T07:29:01;2.93;;;2.73;;
1837;SDS011;918;50.796;6.772;2023-08-12T07:31:26;2.93;;;2.40;;
1837;SDS011;918;50.796;6.772;2023-08-12T07:33:51;2.40;;;2.30;;
1837;SDS011;918;50.796;6.772;2023-08-12T07:36:17;2.73;;;2.53;;
1837;SDS011;918;50.796;6.772;2023-08-12T07:38:42;3.67;;;2.70;;
1837;SDS011;918;50.796;6.772;2023-08-12T07:41:07;3.00;;;2.70;;
1837;SDS011;918;50.796;6.772;2023-08-12T07:43:32;3.30;;;2.30;;
1837;SDS011;918;50.796;6.772;2023-08-12T07:45:58;6.73;;;3.00;;
1837;SDS011;918;50.796;6.772;2023-08-12T07:48:23;3.13;;;2.83;;
1837;SDS011;918;50.796;6.772;2023-08-12T07:50:58;2.60;;;2.40;;
1837;SDS011;918;50.796;6.772;2023-08-12T07:53:24;3.53;;;2.77;;
1837;SDS011;918;50.796;6.772;2023-08-12T07:55:50;2.50;;;2.30;;
1837;SDS011;918;50.796;6.772;2023-08-12T07:58:15;2.10;;;2.00;;
1837;SDS011;918;50.796;6.772;2023-08-12T08:00:40;2.77;;;2.50;;
1837;SDS011;918;50.796;6.772;2023-08-12T08:03:06;2.00;;;1.80;;
1837;SDS011;918;50.796;6.772;2023-08-12T08:05:31;2.90;;;2.50;;
1837;SDS011;918;50.796;6.772;2023-08-12T08:07:56;2.50;;;2.30;;
1837;SDS011;918;50.796;6.772;2023-08-12T08:10:21;2.23;;;2.13;;
1837;SDS011;918;50.796;6.772;2023-08-12T08:12:47;2.03;;;1.93;;
1837;SDS011;918;50.796;6.772;2023-08-12T08:15:12;2.07;;;1.97;;
1837;SDS011;918;50.796;6.772;2023-08-12T08:17:37;2.53;;;2.20;;
1837;SDS011;918;50.796;6.772;2023-08-12T08:20:03;2.23;;;2.03;;
1837;SDS011;918;50.796;6.772;2023-08-12T08:22:30;1.87;;;1.77;;
1837;SDS011;918;50.796;6.772;2023-08-12T08:24:55;1.80;;;1.70;;
1837;SDS011;918;50.796;6.772;2023-08-12T08:27:20;3.03;;;2.20;;
1837;SDS011;918;50.796;6.772;2023-08-12T08:29:46;2.63;;;2.10;;
1837;SDS011;918;50.796;6.772;2023-08-12T08:32:11;2.17;;;2.07;;
1837;SDS011;918;50.796;6.772;2023-08-12T08:34:36;2.07;;;1.87;;
1837;SDS011;918;50.796;6.772;2023-08-12T08:37:02;3.63;;;2.00;;
1837;SDS011;918;50.796;6.772;2023-08-12T08:39:27;2.87;;;2.07;;
1837;SDS011;918;50.796;6.772;2023-08-12T08:41:53;3.20;;;2.20;;
1837;SDS011;918;50.796;6.772;2023-08-12T08:44:20;9.03;;;2.90;;
1837;SDS011;918;50.796;6.772;2023-08-12T08:46:46;2.20;;;2.10;;
1837;SDS011;918;50.796;6.772;2023-08-12T08:49:14;3.23;;;2.30;;
1837;SDS011;918;50.796;6.772;2023-08-12T08:51:40;2.50;;;2.20;;
1837;SDS011;918;50.796;6.772;2023-08-12T08:54:06;2.20;;;2.10;;
1837;SDS011;918;50.796;6.772;2023-08-12T08:56:32;3.30;;;2.30;;
1837;SDS011;918;50.796;6.772;2023-08-12T08:58:57;2.40;;;2.30;;
1837;SDS011;918;50.796;6.772;2023-08-12T09:01:23;2.60;;;2.30;;
1837;SDS011;918;50.796;6.772;2023-08-12T09:03:50;2.40;;;2.20;;
1837;SDS011;918;50.796;6.772;2023-08-12T09:06:17;2.40;;;2.20;;
1837;SDS011;918;50.796;6.772;2023-08-12T09:08:45;2.70;;;2.50;;
1837;SDS011;918;50.796;6.772;2023-08-12T09:11:10;2.43;;;2.23;;
1837;SDS011;918;50.796;6.772;2023-08-12T09:13:36;2.83;;;1.87;;
1837;SDS011;918;50.796;6.772;2023-08-12T09:16:01;2.13;;;2.00;;
1837;SDS011;918;50.796;6.772;2023-08-12T09:18:26;1.90;;;1.80;;
1837;SDS011;918;50.796;6.772;2023-08-12T09:20:54;1.80;;;1.70;;
1837;SDS011;918;50.796;6.772;2023-08-12T09:23:20;1.40;;;1.30;;
1837;SDS011;918;50.796;6.772;2023-08-12T09:25:45;2.40;;;1.60;;
1837;SDS011;918;50.796;6.772;2023-08-12T09:28:11;1.37;;;1.27;;
1837;SDS011;918;50.796;6.772;2023-08-12T09:30:37;2.20;;;1.47;;
1837;SDS011;918;50.796;6.772;2023-08-12T09:33:03;1.40;;;1.10;;
1837;SDS011;918;50.796;6.772;2023-08-12T09:35:37;1.43;;;1.33;;
1837;SDS011;918;50.796;6.772;2023-08-12T09:38:07;1.80;;;1.70;;
1837;SDS011;918;50.796;6.772;2023-08-12T09:40:37;1.50;;;1.40;;
1837;SDS011;918;50.796;6.772;2023-08-12T09:43:02;1.63;;;1.37;;
1837;SDS011;918;50.796;6.772;2023-08-12T09:45:29;1.40;;;1.30;;
1837;SDS011;918;50.796;6.772;2023-08-12T09:47:55;1.23;;;1.20;;
1837;SDS011;918;50.796;6.772;2023-08-12T09:50:21;1.40;;;1.30;;
1837;SDS011;918;50.796;6.772;2023-08-12T09:52:48;1.50;;;1.40;;
1837;SDS011;918;50.796;6.772;2023-08-12T09:55:14;1.20;;;1.20;;
1837;SDS011;918;50.796;6.772;2023-08-12T09:57:42;1.20;;;1.10;;
1837;SDS011;918;50.796;6.772;2023-08-12T10:00:08;1.20;;;1.20;;
1837;SDS011;918;50.796;6.772;2023-08-12T10:02:39;1.20;;;1.20;;
1837;SDS011;918;50.796;6.772;2023-08-12T10:05:05;1.30;;;1.30;;
1837;SDS011;918;50.796;6.772;2023-08-12T10:07:30;1.10;;;1.07;;
1837;SDS011;918;50.796;6.772;2023-08-12T10:09:56;1.60;;;1.50;;
1837;SDS011;918;50.796;6.772;2023-08-12T10:12:22;1.10;;;1.10;;
1837;SDS011;918;50.796;6.772;2023-08-12T10:14:47;1.67;;;1.57;;
1837;SDS011;918;50.796;6.772;2023-08-12T10:17:12;1.53;;;1.43;;
1837;SDS011;918;50.796;6.772;2023-08-12T10:19:42;1.23;;;1.13;;
1837;SDS011;918;50.796;6.772;2023-08-12T10:22:08;2.40;;;1.20;;
1837;SDS011;918;50.796;6.772;2023-08-12T10:24:34;1.47;;;1.37;;
1837;SDS011;918;50.796;6.772;2023-08-12T10:27:00;1.73;;;1.20;;
1837;SDS011;918;50.796;6.772;2023-08-12T10:29:26;1.57;;;1.47;;
1837;SDS011;918;50.796;6.772;2023-08-12T10:31:51;1.77;;;1.67;;
1837;SDS011;918;50.796;6.772;2023-08-12T10:34:20;2.83;;;1.27;;
1837;SDS011;918;50.796;6.772;2023-08-12T10:36:53;1.70;;;1.60;;
1837;SDS011;918;50.796;6.772;2023-08-12T10:39:21;1.60;;;1.50;;
1837;SDS011;918;50.796;6.772;2023-08-12T10:41:49;1.50;;;1.40;;
1837;SDS011;918;50.796;6.772;2023-08-12T10:44:16;1.67;;;1.57;;
1837;SDS011;918;50.796;6.772;2023-08-12T10:46:49;2.10;;;2.00;;
1837;SDS011;918;50.796;6.772;2023-08-12T10:49:15;1.73;;;1.63;;
1837;SDS011;918;50.796;6.772;2023-08-12T10:51:47;1.53;;;1.43;;
1837;SDS011;918;50.796;6.772;2023-08-12T10:54:14;1.70;;;1.60;;
1837;SDS011;918;50.796;6.772;2023-08-12T10:57:07;1.60;;;1.50;;
1837;SDS011;918;50.796;6.772;2023-08-12T11:04:48;1.50;;;1.40;;
1837;SDS011;918;50.796;6.772;2023-08-12T11:10:13;1.63;;;1.53;;
1837;SDS011;918;50.796;6.772;2023-08-12T11:15:16;1.30;;;1.30;;
1837;SDS011;918;50.796;6.772;2023-08-12T11:17:42;1.50;;;1.40;;
1837;SDS011;918;50.796;6.772;2023-08-12T11:20:08;1.63;;;1.53;;
1837;SDS011;918;50.796;6.772;2023-08-12T11:22:35;1.47;;;1.37;;
1837;SDS011;918;50.796;6.772;2023-08-12T11:25:03;1.40;;;1.07;;
1837;SDS011;918;50.796;6.772;2023-08-12T11:27:51;1.50;;;1.40;;
1837;SDS011;918;50.796;6.772;2023-08-12T11:30:17;1.87;;;1.77;;
1837;SDS011;918;50.796;6.772;2023-08-12T11:32:47;1.87;;;1.30;;
1837;SDS011;918;50.796;6.772;2023-08-12T11:35:14;1.63;;;1.20;;
1837;SDS011;918;50.796;6.772;2023-08-12T11:37:41;1.50;;;1.40;;
1837;SDS011;918;50.796;6.772;2023-08-12T11:40:08;1.70;;;1.60;;
1837;SDS011;918;50.796;6.772;2023-08-12T11:42:34;1.50;;;1.40;;
1837;SDS011;918;50.796;6.772;2023-08-12T11:45:00;1.63;;;1.20;;
1837;SDS011;918;50.796;6.772;2023-08-12T11:47:26;1.30;;;1.20;;
1837;SDS011;918;50.796;6.772;2023-08-12T11:49:52;1.60;;;1.50;;
1837;SDS011;918;50.796;6.772;2023-08-12T11:52:17;1.43;;;1.10;;
1837;SDS011;918;50.796;6.772;2023-08-12T11:54:43;1.60;;;1.10;;
1837;SDS011;918;50.796;6.772;2023-08-12T11:57:08;1.30;;;1.10;;
1837;SDS011;918;50.796;6.772;2023-08-12T11:59:33;1.00;;;1.00;;
1837;SDS011;918;50.796;6.772;2023-08-12T12:02:01;1.80;;;1.03;;
1837;SDS011;918;50.796;6.772;2023-08-12T12:04:26;1.53;;;1.27;;
1837;SDS011;918;50.796;6.772;2023-08-12T12:06:52;1.13;;;1.00;;
1837;SDS011;918;50.796;6.772;2023-08-12T12:09:17;1.30;;;1.20;;
1837;SDS011;918;50.796;6.772;2023-08-12T12:11:43;0.90;;;0.90;;
1837;SDS011;918;50.796;6.772;2023-08-12T12:14:09;1.53;;;1.10;;
1837;SDS011;918;50.796;6.772;2023-08-12T12:16:36;0.73;;;0.73;;
1837;SDS011;918;50.796;6.772;2023-08-12T12:19:09;2.10;;;1.17;;
1837;SDS011;918;50.796;6.772;2023-08-12T12:21:39;1.10;;;1.00;;
1837;SDS011;918;50.796;6.772;2023-08-12T12:24:06;1.00;;;1.00;;
1837;SDS011;918;50.796;6.772;2023-08-12T12:26:32;1.37;;;1.27;;
1837;SDS011;918;50.796;6.772;2023-08-12T12:28:57;1.00;;;1.00;;
1837;SDS011;918;50.796;6.772;2023-08-12T12:31:22;1.60;;;1.37;;
1837;SDS011;918;50.796;6.772;2023-08-12T12:33:48;1.57;;;1.10;;
1837;SDS011;918;50.796;6.772;2023-08-12T12:36:13;1.23;;;1.23;;
1837;SDS011;918;50.796;6.772;2023-08-12T12:38:38;1.20;;;1.20;;
1837;SDS011;918;50.796;6.772;2023-08-12T12:41:03;1.17;;;1.17;;
1837;SDS011;918;50.796;6.772;2023-08-12T12:43:28;0.87;;;0.87;;
1837;SDS011;918;50.796;6.772;2023-08-12T12:45:54;1.10;;;0.90;;
1837;SDS011;918;50.796;6.772;2023-08-12T12:48:19;0.80;;;0.80;;
1837;SDS011;918;50.796;6.772;2023-08-12T12:50:44;1.13;;;0.80;;
1837;SDS011;918;50.796;6.772;2023-08-12T12:53:10;1.90;;;1.73;;
1837;SDS011;918;50.796;6.772;2023-08-12T12:55:35;1.63;;;1.17;;
1837;SDS011;918;50.796;6.772;2023-08-12T12:58:00;1.20;;;1.17;;
1837;SDS011;918;50.796;6.772;2023-08-12T13:00:25;0.90;;;0.90;;
1837;SDS011;918;50.796;6.772;2023-08-12T13:02:51;0.70;;;0.70;;
1837;SDS011;918;50.796;6.772;2023-08-12T13:05:16;1.93;;;1.00;;
1837;SDS011;918;50.796;6.772;2023-08-12T13:07:41;0.70;;;0.70;;
1837;SDS011;918;50.796;6.772;2023-08-12T13:10:07;0.93;;;0.60;;
1837;SDS011;918;50.796;6.772;2023-08-12T13:12:32;0.40;;;0.40;;
1837;SDS011;918;50.796;6.772;2023-08-12T13:14:57;0.50;;;0.40;;
1837;SDS011;918;50.796;6.772;2023-08-12T13:17:23;0.50;;;0.50;;
1837;SDS011;918;50.796;6.772;2023-08-12T13:19:48;0.50;;;0.50;;
1837;SDS011;918;50.796;6.772;2023-08-12T13:22:13;0.60;;;0.60;;
1837;SDS011;918;50.796;6.772;2023-08-12T13:24:39;0.63;;;0.63;;
1837;SDS011;918;50.796;6.772;2023-08-12T13:27:04;1.20;;;1.20;;
1837;SDS011;918;50.796;6.772;2023-08-12T13:29:29;1.33;;;0.67;;
1837;SDS011;918;50.796;6.772;2023-08-12T13:31:55;0.40;;;0.40;;
1837;SDS011;918;50.796;6.772;2023-08-12T13:34:21;0.80;;;0.80;;
1837;SDS011;918;50.796;6.772;2023-08-12T13:36:46;0.70;;;0.63;;
1837;SDS011;918;50.796;6.772;2023-08-12T13:39:11;0.50;;;0.50;;
1837;SDS011;918;50.796;6.772;2023-08-12T13:41:36;0.60;;;0.53;;
1837;SDS011;918;50.796;6.772;2023-08-12T13:44:02;0.50;;;0.50;;
1837;SDS011;918;50.796;6.772;2023-08-12T13:46:28;0.40;;;0.40;;
1837;SDS011;918;50.796;6.772;2023-08-12T13:48:53;0.60;;;0.60;;
1837;SDS011;918;50.796;6.772;2023-08-12T13:51:18;2.33;;;0.60;;
1837;SDS011;918;50.796;6.772;2023-08-12T13:53:44;1.03;;;0.67;;
1837;SDS011;918;50.796;6.772;2023-08-12T13:56:09;0.97;;;0.87;;
1837;SDS011;918;50.796;6.772;2023-08-12T13:58:34;0.60;;;0.60;;
1837;SDS011;918;50.796;6.772;2023-08-12T14:00:59;0.63;;;0.63;;
1837;SDS011;918;50.796;6.772;2023-08-12T14:03:25;1.07;;;0.80;;
1837;SDS011;918;50.796;6.772;2023-08-12T14:05:50;0.67;;;0.67;;
1837;SDS011;918;50.796;6.772;2023-08-12T14:08:15;0.60;;;0.60;;
1837;SDS011;918;50.796;6.772;2023-08-12T14:10:40;0.90;;;0.70;;
1837;SDS011;918;50.796;6.772;2023-08-12T14:13:06;0.80;;;0.80;;
1837;SDS011;918;50.796;6.772;2023-08-12T14:15:31;0.70;;;0.70;;
1837;SDS011;918;50.796;6.772;2023-08-12T14:17:57;0.83;;;0.83;;
1837;SDS011;918;50.796;6.772;2023-08-12T14:20:22;0.90;;;0.90;;
1837;SDS011;918;50.796;6.772;2023-08-12T14:22:47;0.60;;;0.60;;
1837;SDS011;918;50.796;6.772;2023-08-12T14:25:12;0.63;;;0.63;;
1837;SDS011;918;50.796;6.772;2023-08-12T14:27:38;0.70;;;0.70;;
1837;SDS011;918;50.796;6.772;2023-08-12T14:30:03;0.57;;;0.57;;
1837;SDS011;918;50.796;6.772;2023-08-12T14:32:29;0.87;;;0.77;;
1837;SDS011;918;50.796;6.772;2023-08-12T14:34:54;0.80;;;0.80;;
1837;SDS011;918;50.796;6.772;2023-08-12T14:37:19;0.63;;;0.63;;
1837;SDS011;918;50.796;6.772;2023-08-12T14:39:44;0.60;;;0.60;;
1837;SDS011;918;50.796;6.772;2023-08-12T14:42:10;0.60;;;0.60;;
1837;SDS011;918;50.796;6.772;2023-08-12T14:44:36;1.07;;;0.97;;
1837;SDS011;918;50.796;6.772;2023-08-12T14:47:01;0.53;;;0.53;;
1837;SDS011;918;50.796;6.772;2023-08-12T14:49:27;1.13;;;0.80;;
1837;SDS011;918;50.796;6.772;2023-08-12T14:51:54;0.80;;;0.70;;
1837;SDS011;918;50.796;6.772;2023-08-12T14:54:19;1.87;;;0.70;;
1837;SDS011;918;50.796;6.772;2023-08-12T14:56:46;0.50;;;0.50;;
1837;SDS011;918;50.796;6.772;2023-08-12T14:59:11;0.60;;;0.60;;
1837;SDS011;918;50.796;6.772;2023-08-12T15:01:36;0.90;;;0.90;;
1837;SDS011;918;50.796;6.772;2023-08-12T15:04:01;1.20;;;1.10;;
1837;SDS011;918;50.796;6.772;2023-08-12T15:06:27;1.10;;;1.00;;
1837;SDS011;918;50.796;6.772;2023-08-12T15:08:53;1.27;;;1.17;;
1837;SDS011;918;50.796;6.772;2023-08-12T15:11:18;0.90;;;0.90;;
1837;SDS011;918;50.796;6.772;2023-08-12T15:13:43;0.80;;;0.80;;
1837;SDS011;918;50.796;6.772;2023-08-12T15:16:09;0.73;;;0.73;;
1837;SDS011;918;50.796;6.772;2023-08-12T15:18:36;0.70;;;0.70;;
1837;SDS011;918;50.796;6.772;2023-08-12T15:21:01;1.97;;;1.03;;
1837;SDS011;918;50.796;6.772;2023-08-12T15:23:27;1.17;;;1.07;;
1837;SDS011;918;50.796;6.772;2023-08-12T15:25:52;1.53;;;1.03;;